createdAt,value
2022-09-20T00:02:06.049Z,99.90
2022-09-20T00:04:36.157Z,99.90
2022-09-20T00:07:07.094Z,99.90
2022-09-20T00:09:35.085Z,99.90
2022-09-20T00:12:03.315Z,99.90
2022-09-20T00:14:31.776Z,99.90
2022-09-20T00:16:59.731Z,99.90
2022-09-20T00:19:27.817Z,99.90
2022-09-20T00:21:57.440Z,99.90
2022-09-20T00:24:25.570Z,99.90
2022-09-20T00:26:54.590Z,99.90
2022-09-20T00:29:22.737Z,99.90
2022-09-20T00:31:50.919Z,99.90
2022-09-20T00:34:38.939Z,99.90
2022-09-20T00:37:08.778Z,99.90
2022-09-20T00:39:36.723Z,99.90
2022-09-20T00:42:05.446Z,99.90
2022-09-20T00:44:48.826Z,99.90
2022-09-20T00:47:31.832Z,99.90
2022-09-20T00:50:03.006Z,99.90
2022-09-20T00:52:33.398Z,99.90
2022-09-20T00:55:02.104Z,99.90
2022-09-20T00:57:35.452Z,99.90
2022-09-20T01:00:04.650Z,99.90
2022-09-20T01:02:45.013Z,99.90
2022-09-20T01:05:32.924Z,99.90
2022-09-20T01:08:08.151Z,99.90
2022-09-20T01:10:36.350Z,99.90
2022-09-20T01:13:04.570Z,99.90
2022-09-20T01:15:33.864Z,99.90
2022-09-20T01:18:04.046Z,99.90
2022-09-20T01:20:39.749Z,99.90
2022-09-20T01:23:38.817Z,99.90
2022-09-20T01:26:36.871Z,99.90
2022-09-20T01:29:11.130Z,99.90
2022-09-20T01:31:42.059Z,99.90
2022-09-20T01:34:13.167Z,99.90
2022-09-20T01:36:46.355Z,99.90
2022-09-20T01:39:20.208Z,99.90
2022-09-20T01:41:50.483Z,99.90
2022-09-20T01:44:23.480Z,99.90
2022-09-20T01:46:54.197Z,99.90
2022-09-20T01:49:30.348Z,99.90
2022-09-20T01:52:16.376Z,99.90
2022-09-20T01:54:58.154Z,99.90
2022-09-20T01:57:50.168Z,99.90
2022-09-20T02:00:22.966Z,99.90
2022-09-20T02:03:02.016Z,99.90
2022-09-20T02:05:41.345Z,99.90
2022-09-20T02:08:10.567Z,99.90
2022-09-20T02:11:06.728Z,99.90
2022-09-20T02:13:40.914Z,99.90
2022-09-20T02:16:23.777Z,99.90
2022-09-20T02:19:08.302Z,99.90
2022-09-20T02:21:38.933Z,99.90
2022-09-20T02:24:17.721Z,99.90
2022-09-20T02:26:51.959Z,99.90
2022-09-20T02:29:27.142Z,99.90
2022-09-20T02:32:07.411Z,99.90
2022-09-20T02:34:53.391Z,99.90
2022-09-20T02:37:40.938Z,99.90
2022-09-20T02:40:20.127Z,99.90
2022-09-20T02:42:51.642Z,99.90
2022-09-20T02:45:24.170Z,99.90
2022-09-20T02:47:53.222Z,99.90
2022-09-20T02:50:27.982Z,99.90
2022-09-20T02:53:05.495Z,99.90
2022-09-20T02:55:40.248Z,99.90
2022-09-20T02:58:16.771Z,99.90
2022-09-20T03:00:48.214Z,99.90
2022-09-20T03:03:21.682Z,99.90
2022-09-20T03:05:54.584Z,99.90
2022-09-20T03:08:29.724Z,99.90
2022-09-20T03:11:03.059Z,99.90
2022-09-20T03:13:35.708Z,99.90
2022-09-20T03:16:09.032Z,99.90
2022-09-20T03:18:43.355Z,99.90
2022-09-20T03:21:18.680Z,99.90
2022-09-20T03:23:55.637Z,99.90
2022-09-20T03:26:31.322Z,99.90
2022-09-20T03:29:02.110Z,99.90
2022-09-20T03:31:44.895Z,99.90
2022-09-20T03:34:19.830Z,99.90
2022-09-20T03:36:54.314Z,99.90
2022-09-20T03:39:31.287Z,99.90
2022-09-20T03:42:04.306Z,99.90
2022-09-20T03:44:43.146Z,99.90
2022-09-20T03:47:18.108Z,99.90
2022-09-20T03:49:55.974Z,99.90
2022-09-20T03:52:35.464Z,99.90
2022-09-20T03:55:22.583Z,99.90
2022-09-20T03:57:59.916Z,99.90
2022-09-20T04:00:33.946Z,99.90
2022-09-20T04:03:13.781Z,99.90
2022-09-20T04:05:46.832Z,99.90
2022-09-20T04:08:22.634Z,99.90
2022-09-20T04:10:55.815Z,99.90
2022-09-20T04:13:30.283Z,99.90
2022-09-20T04:16:03.196Z,99.90
2022-09-20T04:18:34.436Z,99.90
2022-09-20T04:21:05.891Z,99.90
2022-09-20T04:23:37.435Z,99.90
2022-09-20T04:26:07.010Z,99.90
2022-09-20T04:28:38.006Z,99.90
2022-09-20T04:31:11.871Z,99.90
2022-09-20T04:33:42.985Z,99.90
2022-09-20T04:36:35.515Z,99.90
2022-09-20T04:39:17.306Z,99.90
2022-09-20T04:42:20.950Z,99.90
2022-09-20T04:45:16.762Z,99.90
2022-09-20T04:48:05.790Z,99.90
2022-09-20T04:50:51.674Z,99.90
2022-09-20T04:53:44.983Z,99.90
2022-09-20T04:56:19.066Z,99.90
2022-09-20T04:58:50.975Z,99.90
2022-09-20T05:01:32.560Z,99.90
2022-09-20T05:04:22.134Z,99.90
2022-09-20T05:07:10.958Z,99.90
2022-09-20T05:09:53.838Z,99.90
2022-09-20T05:12:39.914Z,99.90
2022-09-20T05:15:12.564Z,99.90
2022-09-20T05:17:47.667Z,99.90
2022-09-20T05:20:25.307Z,99.90
2022-09-20T05:23:04.291Z,99.90
2022-09-20T05:25:42.323Z,99.90
2022-09-20T05:28:13.696Z,99.90
2022-09-20T05:30:46.950Z,99.90
2022-09-20T05:33:20.422Z,99.90
2022-09-20T05:35:56.206Z,99.90
2022-09-20T05:41:07.235Z,99.90
2022-09-20T05:43:36.566Z,99.90
2022-09-20T05:46:12.282Z,99.90
2022-09-20T05:48:44.631Z,99.90
2022-09-20T05:51:22.152Z,99.90
2022-09-20T05:54:17.290Z,99.90
2022-09-20T05:56:48.637Z,99.90
2022-09-20T05:59:31.939Z,99.90
2022-09-20T06:02:17.834Z,99.90
2022-09-20T06:04:51.608Z,99.90
2022-09-20T06:07:23.981Z,99.90
2022-09-20T06:10:07.741Z,99.90
2022-09-20T06:12:41.311Z,99.90
2022-09-20T06:15:15.792Z,99.90
2022-09-20T06:17:46.258Z,99.90
2022-09-20T06:20:19.262Z,99.90
2022-09-20T06:22:49.072Z,99.90
2022-09-20T06:25:20.694Z,99.90
2022-09-20T06:27:52.597Z,99.90
2022-09-20T06:30:22.731Z,99.90
2022-09-20T06:32:54.519Z,99.90
2022-09-20T06:35:24.315Z,99.90
2022-09-20T06:38:13.414Z,99.90
2022-09-20T06:41:01.638Z,99.90
2022-09-20T06:43:31.035Z,99.90
2022-09-20T06:45:59.036Z,99.90
2022-09-20T06:48:27.248Z,99.90
2022-09-20T06:50:57.412Z,99.90
2022-09-20T06:53:27.326Z,99.90
2022-09-20T06:55:55.252Z,99.90
2022-09-20T06:58:23.147Z,99.90
2022-09-20T07:00:51.082Z,99.90
2022-09-20T07:03:19.659Z,99.90
2022-09-20T07:05:47.974Z,99.90
2022-09-20T07:08:17.592Z,99.90
2022-09-20T07:10:45.463Z,99.90
2022-09-20T07:13:13.903Z,99.90
2022-09-20T07:15:41.842Z,99.90
2022-09-20T07:18:09.736Z,99.90
2022-09-20T07:20:37.979Z,99.90
2022-09-20T07:23:06.047Z,99.90
2022-09-20T07:25:35.698Z,99.90
2022-09-20T07:28:03.779Z,99.90
2022-09-20T07:30:31.740Z,99.90
2022-09-20T07:33:00.662Z,99.90
2022-09-20T07:35:28.595Z,99.90
2022-09-20T07:37:59.697Z,99.90
2022-09-20T07:40:27.698Z,99.90
2022-09-20T07:42:58.802Z,99.90
2022-09-20T07:45:26.931Z,99.90
2022-09-20T07:47:54.915Z,99.90
2022-09-20T07:50:22.842Z,99.90
2022-09-20T07:52:50.813Z,99.90
2022-09-20T07:55:18.836Z,99.90
2022-09-20T07:57:46.715Z,99.90
2022-09-20T08:00:17.014Z,99.90
2022-09-20T08:02:45.476Z,99.90
2022-09-20T08:05:13.432Z,99.90
2022-09-20T08:07:41.499Z,99.90
2022-09-20T08:10:09.830Z,99.90
2022-09-20T08:15:28.244Z,99.90
2022-09-20T08:17:56.286Z,99.90
2022-09-20T08:20:24.211Z,99.90
2022-09-20T08:23:19.324Z,99.90
2022-09-20T08:25:43.306Z,99.90
2022-09-20T08:28:11.175Z,99.90
2022-09-20T08:30:40.646Z,99.90
2022-09-20T08:33:08.554Z,99.90
2022-09-20T08:35:38.231Z,99.90
2022-09-20T08:40:57.463Z,99.90
2022-09-20T08:43:28.674Z,99.90
2022-09-20T08:45:59.775Z,99.90
2022-09-20T08:48:29.424Z,99.90
2022-09-20T08:50:57.549Z,99.90
2022-09-20T08:53:26.303Z,99.90
2022-09-20T08:55:54.231Z,99.90
2022-09-20T08:58:22.093Z,99.90
2022-09-20T09:00:49.998Z,99.90
2022-09-20T09:03:19.808Z,99.90
2022-09-20T09:05:48.485Z,99.90
2022-09-20T09:08:18.451Z,99.90
2022-09-20T09:10:47.289Z,99.90
2022-09-20T09:13:21.770Z,99.90
2022-09-20T09:15:53.518Z,99.90
2022-09-20T09:18:23.386Z,99.90
2022-09-20T09:20:51.618Z,99.90
2022-09-20T09:23:26.878Z,99.90
2022-09-20T09:25:55.152Z,99.90
2022-09-20T09:28:24.592Z,99.90
2022-09-20T09:30:52.575Z,99.90
2022-09-20T09:33:26.734Z,99.90
2022-09-20T09:35:55.742Z,99.90
2022-09-20T09:38:24.340Z,99.90
2022-09-20T09:40:53.342Z,99.90
2022-09-20T09:43:23.387Z,99.90
2022-09-20T09:45:51.312Z,99.90
2022-09-20T09:48:20.203Z,99.90
2022-09-20T09:50:49.788Z,99.90
2022-09-20T09:53:18.722Z,99.90
2022-09-20T09:56:04.271Z,99.90
2022-09-20T09:58:40.462Z,99.90
2022-09-20T10:01:10.878Z,99.90
2022-09-20T10:03:45.777Z,99.90
2022-09-20T10:06:19.770Z,99.90
2022-09-20T10:08:53.134Z,99.90
2022-09-20T10:11:29.874Z,99.90
2022-09-20T10:14:05.386Z,97.90
2022-09-20T10:16:37.871Z,97.80
2022-09-20T10:19:12.572Z,99.90
2022-09-20T10:21:48.834Z,99.90
2022-09-20T10:24:21.561Z,99.90
2022-09-20T10:26:54.517Z,99.90
2022-09-20T10:29:28.443Z,99.90
2022-09-20T10:32:00.939Z,97.70
2022-09-20T10:34:46.601Z,99.10
2022-09-20T10:37:19.185Z,99.90
2022-09-20T10:39:48.495Z,99.90
2022-09-20T10:42:43.669Z,99.90
2022-09-20T10:45:29.553Z,99.90
2022-09-20T10:48:07.272Z,99.90
2022-09-20T10:50:39.279Z,99.90
2022-09-20T10:53:18.905Z,99.90
2022-09-20T10:55:53.050Z,99.90
2022-09-20T10:58:33.978Z,99.90
2022-09-20T11:01:04.051Z,99.90
2022-09-20T11:03:43.804Z,99.90
2022-09-20T11:06:17.633Z,99.90
2022-09-20T11:08:50.839Z,99.90
2022-09-20T11:11:20.673Z,99.90
2022-09-20T11:13:53.846Z,99.90
2022-09-20T11:16:24.689Z,99.90
2022-09-20T11:18:55.647Z,99.90
2022-09-20T11:21:26.107Z,99.90
2022-09-20T11:23:59.722Z,99.90
2022-09-20T11:26:31.944Z,99.90
2022-09-20T11:29:03.932Z,99.90
2022-09-20T11:31:33.337Z,99.90
2022-09-20T11:34:04.102Z,99.90
2022-09-20T11:36:34.955Z,99.90
2022-09-20T11:39:07.106Z,99.90
2022-09-20T11:41:35.539Z,99.90
2022-09-20T11:44:07.125Z,99.90
2022-09-20T11:46:39.646Z,99.90
2022-09-20T11:49:10.991Z,99.90
2022-09-20T11:52:00.063Z,99.90
2022-09-20T11:54:42.836Z,99.90
2022-09-20T11:57:16.765Z,99.90
2022-09-20T11:59:50.980Z,99.90
2022-09-20T12:02:21.766Z,99.90
2022-09-20T12:04:53.325Z,99.90
2022-09-20T12:07:23.976Z,99.90
2022-09-20T12:09:56.579Z,99.90
2022-09-20T12:12:31.401Z,99.90
2022-09-20T12:15:00.526Z,99.90
2022-09-20T12:17:47.299Z,99.90
2022-09-20T12:20:34.379Z,99.90
2022-09-20T12:23:17.204Z,99.90
2022-09-20T12:26:00.743Z,99.90
2022-09-20T12:28:35.323Z,99.90
2022-09-20T12:31:22.033Z,99.90
2022-09-20T12:33:58.070Z,99.90
2022-09-20T12:36:27.686Z,99.90
2022-09-20T12:39:00.156Z,99.90
2022-09-20T12:41:29.187Z,99.20
2022-09-20T12:44:04.222Z,98.30
2022-09-20T12:46:34.664Z,98.10
2022-09-20T12:49:36.791Z,98.50
2022-09-20T12:52:22.310Z,98.60
2022-09-20T12:54:56.349Z,99.40
2022-09-20T12:57:32.368Z,99.90
2022-09-20T13:00:02.823Z,99.90
2022-09-20T13:02:43.990Z,99.90
2022-09-20T13:05:32.222Z,99.90
2022-09-20T13:08:03.145Z,99.90
2022-09-20T13:10:33.529Z,99.90
2022-09-20T13:13:04.387Z,99.90
2022-09-20T13:15:34.966Z,99.90
2022-09-20T13:18:03.139Z,99.90
2022-09-20T13:20:34.796Z,99.90
2022-09-20T13:23:03.491Z,99.90
2022-09-20T13:25:32.118Z,99.90
2022-09-20T13:28:04.397Z,99.90
2022-09-20T13:30:33.808Z,99.90
2022-09-20T13:33:16.167Z,99.90
2022-09-20T13:35:47.053Z,99.90
2022-09-20T13:38:22.480Z,99.90
2022-09-20T13:40:51.022Z,99.90
2022-09-20T13:43:27.758Z,99.90
2022-09-20T13:45:59.058Z,99.90
2022-09-20T13:48:27.707Z,99.90
2022-09-20T13:50:56.011Z,99.90
2022-09-20T13:53:40.727Z,99.90
2022-09-20T13:56:11.323Z,99.90
2022-09-20T13:58:39.269Z,99.90
2022-09-20T14:01:20.126Z,99.90
2022-09-20T14:03:48.375Z,99.90
2022-09-20T14:06:17.013Z,99.30
2022-09-20T14:08:46.467Z,97.20
2022-09-20T14:11:17.103Z,97.90
2022-09-20T14:13:45.947Z,99.50
2022-09-20T14:16:15.854Z,99.90
2022-09-20T14:18:44.422Z,99.90
2022-09-20T14:21:12.867Z,99.90
2022-09-20T14:23:51.062Z,99.90
2022-09-20T14:26:23.504Z,99.90
2022-09-20T14:28:51.690Z,99.90
2022-09-20T14:31:22.404Z,99.90
2022-09-20T14:33:54.947Z,99.90
2022-09-20T14:36:24.871Z,99.90
2022-09-20T14:38:54.475Z,99.90
2022-09-20T14:41:26.438Z,99.90
2022-09-20T14:43:55.924Z,99.90
2022-09-20T14:46:29.881Z,99.90
2022-09-20T14:49:12.666Z,99.90
2022-09-20T14:51:40.553Z,99.90
2022-09-20T14:54:25.505Z,99.90
2022-09-20T14:56:54.006Z,99.90
2022-09-20T14:59:24.739Z,99.90
2022-09-20T15:01:58.644Z,99.90
2022-09-20T15:04:27.923Z,99.90
2022-09-20T15:06:56.150Z,99.90
2022-09-20T15:09:24.162Z,99.90
2022-09-20T15:12:02.865Z,99.90
2022-09-20T15:14:36.998Z,99.90
2022-09-20T15:17:07.206Z,99.90
2022-09-20T15:19:35.218Z,99.90
2022-09-20T15:22:03.247Z,99.90
2022-09-20T15:24:31.184Z,99.90
2022-09-20T15:26:59.075Z,99.90
2022-09-20T15:29:27.458Z,99.90
2022-09-20T15:31:55.426Z,99.90
2022-09-20T15:34:24.966Z,99.90
2022-09-20T15:36:54.222Z,99.90
2022-09-20T15:39:22.342Z,99.90
2022-09-20T15:41:52.722Z,99.90
2022-09-20T15:44:20.719Z,99.90
2022-09-20T15:46:48.980Z,99.90
2022-09-20T15:49:16.985Z,99.90
2022-09-20T15:51:46.594Z,99.90
2022-09-20T15:54:15.460Z,99.90
2022-09-20T15:56:43.708Z,99.90
2022-09-20T15:59:13.104Z,99.90
2022-09-20T16:01:42.043Z,99.90
2022-09-20T16:04:10.806Z,99.90
2022-09-20T16:06:38.882Z,99.90
2022-09-20T16:09:08.765Z,99.90
2022-09-20T16:11:37.408Z,99.90
2022-09-20T16:14:05.584Z,99.90
2022-09-20T16:16:38.920Z,99.90
2022-09-20T16:19:21.231Z,99.90
2022-09-20T16:21:55.054Z,99.90
2022-09-20T16:24:27.171Z,99.90
2022-09-20T16:26:55.222Z,99.90
2022-09-20T16:29:25.133Z,99.90
2022-09-20T16:31:54.418Z,99.90
2022-09-20T16:34:24.030Z,99.90
2022-09-20T16:37:08.721Z,99.90
2022-09-20T16:39:38.795Z,99.90
2022-09-20T16:42:08.926Z,99.90
2022-09-20T16:44:37.570Z,99.90
2022-09-20T16:47:08.095Z,99.90
2022-09-20T16:49:36.440Z,99.90
2022-09-20T16:52:05.094Z,99.90
2022-09-20T16:54:33.898Z,99.90
2022-09-20T16:57:05.210Z,99.90
2022-09-20T16:59:33.335Z,99.90
2022-09-20T17:02:01.286Z,99.90
2022-09-20T17:04:30.235Z,99.90
2022-09-20T17:06:58.838Z,99.90
2022-09-20T17:09:28.380Z,99.90
2022-09-20T17:11:56.291Z,99.90
2022-09-20T17:14:25.887Z,99.90
2022-09-20T17:16:53.827Z,99.90
2022-09-20T17:19:22.295Z,99.90
2022-09-20T17:21:51.256Z,99.90
2022-09-20T17:24:20.154Z,99.90
2022-09-20T17:26:48.703Z,99.90
2022-09-20T17:29:17.855Z,99.90
2022-09-20T17:31:54.131Z,99.90
2022-09-20T17:34:22.841Z,99.90
2022-09-20T17:36:50.987Z,99.90
2022-09-20T17:39:19.214Z,99.90
2022-09-20T17:41:49.866Z,99.90
2022-09-20T17:44:18.266Z,99.90
2022-09-20T17:46:49.600Z,99.90
2022-09-20T17:49:19.458Z,99.90
2022-09-20T17:51:48.135Z,99.90
2022-09-20T17:54:16.428Z,99.90
2022-09-20T17:56:46.358Z,99.90
2022-09-20T17:59:16.227Z,99.90
2022-09-20T18:01:44.587Z,99.90
2022-09-20T18:04:14.095Z,99.90
2022-09-20T18:06:43.209Z,99.90
2022-09-20T18:09:12.193Z,99.90
2022-09-20T18:11:40.902Z,99.90
2022-09-20T18:14:10.297Z,99.90
2022-09-20T18:16:39.517Z,99.90
2022-09-20T18:19:08.080Z,99.90
2022-09-20T18:21:38.214Z,99.90
2022-09-20T18:24:06.673Z,99.90
2022-09-20T18:26:35.147Z,99.90
2022-09-20T18:29:04.742Z,99.90
2022-09-20T18:31:36.251Z,99.90
2022-09-20T18:34:06.456Z,99.90
2022-09-20T18:36:35.090Z,99.90
2022-09-20T18:39:04.534Z,99.90
2022-09-20T18:41:34.027Z,99.90
2022-09-20T18:44:04.042Z,99.90
2022-09-20T18:46:32.291Z,99.90
2022-09-20T18:49:07.596Z,99.90
2022-09-20T18:51:39.712Z,99.90
2022-09-20T18:54:11.154Z,99.90
2022-09-20T18:56:40.079Z,99.90
2022-09-20T18:59:09.579Z,99.90
2022-09-20T19:01:54.593Z,99.90
2022-09-20T19:04:33.678Z,99.90
2022-09-20T19:07:05.044Z,99.90
2022-09-20T19:09:38.675Z,99.90
2022-09-20T19:12:11.228Z,99.90
2022-09-20T19:14:46.989Z,99.90
2022-09-20T19:17:17.266Z,99.90
2022-09-20T19:19:48.220Z,99.90
2022-09-20T19:22:20.091Z,99.90
2022-09-20T19:24:58.256Z,99.90
2022-09-20T19:27:26.880Z,99.90
2022-09-20T19:29:55.089Z,99.90
2022-09-20T19:32:26.250Z,99.90
2022-09-20T19:34:56.532Z,99.90
2022-09-20T19:37:28.339Z,99.90
2022-09-20T19:40:08.897Z,99.90
2022-09-20T19:42:43.254Z,99.90
2022-09-20T19:45:16.632Z,99.90
2022-09-20T19:47:49.201Z,99.90
2022-09-20T19:50:25.468Z,99.90
2022-09-20T19:52:53.797Z,99.90
2022-09-20T19:55:23.837Z,99.90
2022-09-20T19:57:52.176Z,99.90
2022-09-20T20:00:21.879Z,99.90
2022-09-20T20:02:50.386Z,99.90
2022-09-20T20:05:20.915Z,99.90
2022-09-20T20:07:53.536Z,99.90
2022-09-20T20:10:28.293Z,99.90
2022-09-20T20:12:59.677Z,99.90
2022-09-20T20:15:38.751Z,99.90
2022-09-20T20:18:13.300Z,99.90
2022-09-20T20:20:48.990Z,99.90
2022-09-20T20:23:52.312Z,99.90
2022-09-20T20:26:25.505Z,99.90
2022-09-20T20:28:54.631Z,99.90
2022-09-20T20:31:22.983Z,99.90
2022-09-20T20:34:00.046Z,99.90
2022-09-20T20:39:22.956Z,99.90
2022-09-20T20:41:52.544Z,99.90
2022-09-20T20:44:20.994Z,99.90
2022-09-20T20:46:58.040Z,99.90
2022-09-20T20:49:53.586Z,99.90
2022-09-20T20:52:21.696Z,99.90
2022-09-20T20:54:49.733Z,99.90
2022-09-20T20:57:19.258Z,99.90
2022-09-20T20:59:50.486Z,99.90
2022-09-20T21:02:18.620Z,99.90
2022-09-20T21:04:51.890Z,99.90
2022-09-20T21:07:22.943Z,99.90
2022-09-20T21:09:51.338Z,99.90
2022-09-20T21:12:21.260Z,99.90
2022-09-20T21:14:57.867Z,99.90
2022-09-20T21:17:38.067Z,99.90
2022-09-20T21:20:06.436Z,99.90
2022-09-20T21:25:22.983Z,99.90
2022-09-20T21:27:52.329Z,99.90
2022-09-20T21:30:20.662Z,99.90
2022-09-20T21:32:48.934Z,99.90
2022-09-20T21:35:17.006Z,99.90
2022-09-20T21:37:45.875Z,99.90
2022-09-20T21:40:13.922Z,99.90
2022-09-20T21:42:41.874Z,99.90
2022-09-20T21:45:11.720Z,99.90
2022-09-20T21:47:42.752Z,99.90
2022-09-20T21:50:10.947Z,99.90
2022-09-20T21:52:39.183Z,99.90
2022-09-20T21:55:13.565Z,99.90
2022-09-20T21:57:41.555Z,99.90
2022-09-20T22:00:11.815Z,99.90
2022-09-20T22:02:40.061Z,99.90
2022-09-20T22:05:08.720Z,99.90
2022-09-20T22:07:36.785Z,99.90
2022-09-20T22:10:05.194Z,99.90
2022-09-20T22:12:33.300Z,99.90
2022-09-20T22:15:01.439Z,99.90
2022-09-20T22:17:31.003Z,99.90
2022-09-20T22:19:59.407Z,99.90
2022-09-20T22:22:30.522Z,99.90
2022-09-20T22:24:58.556Z,99.90
2022-09-20T22:27:26.674Z,99.90
2022-09-20T22:29:55.130Z,99.90
2022-09-20T22:32:23.079Z,99.90
2022-09-20T22:34:52.372Z,99.90
2022-09-20T22:37:20.490Z,99.90
2022-09-20T22:39:48.494Z,99.90
2022-09-20T22:42:16.414Z,99.90
2022-09-20T22:44:44.396Z,99.90
2022-09-20T22:47:12.671Z,99.90
2022-09-20T22:49:43.648Z,99.90
2022-09-20T22:52:13.106Z,99.90
2022-09-20T22:54:41.139Z,99.90
2022-09-20T22:57:08.998Z,99.90
2022-09-20T22:59:36.975Z,99.90
2022-09-20T23:02:05.147Z,99.90
2022-09-20T23:04:33.081Z,99.90
2022-09-20T23:07:00.963Z,99.90
2022-09-20T23:09:30.339Z,99.90
2022-09-20T23:11:58.511Z,99.90
2022-09-20T23:14:26.470Z,99.90
2022-09-20T23:16:54.652Z,99.90
2022-09-20T23:19:22.686Z,99.90
2022-09-20T23:21:50.598Z,99.90
2022-09-20T23:24:18.625Z,99.90
2022-09-20T23:26:48.014Z,99.90
2022-09-20T23:29:17.141Z,99.90
2022-09-20T23:31:46.658Z,99.90
2022-09-20T23:34:15.309Z,99.90
2022-09-20T23:36:43.628Z,99.90
2022-09-20T23:39:12.141Z,99.90
2022-09-20T23:41:41.271Z,99.90
2022-09-20T23:44:11.535Z,99.90
2022-09-20T23:46:39.624Z,99.90
2022-09-20T23:49:09.374Z,99.90
2022-09-20T23:51:37.452Z,99.90
2022-09-20T23:54:05.719Z,99.90
2022-09-20T23:56:33.808Z,99.90
2022-09-20T23:59:01.748Z,99.90
